TWY25 KPBI-MYAM
Flight info
| Callsign | TWY25 |
|---|---|
| Flight time | 0h 27m |
| Altitude | 21000 |
| Route | MIXAE3 HALBI |
| Aircraft | GLF5/M-SFGHIRWXY/S |
Departure
| Time | 2026-05-06 21:44 |
|---|---|
| Airport | Palm Beach International Airport (KPBI) |
Arrival
| Time | 2026-05-06 22:12 |
|---|---|
| Airport | Leonard M. Thompson International Airport (MYAM) |
| Time | Latitude | Longitude | Altitude | Speed | Heading |
|---|---|---|---|---|---|
| 2026-05-06 21:33 | 26.67951 | -80.08064 | 23 ft | 0 kts | 250° |
| 2026-05-06 21:39 | 26.67960 | -80.08084 | 23 ft | 7 kts | 313° |
| 2026-05-06 21:39 | 26.68020 | -80.08137 | 23 ft | 11 kts | 328° |
| 2026-05-06 21:40 | 26.68077 | -80.08168 | 22 ft | 15 kts | 317° |
| 2026-05-06 21:40 | 26.68101 | -80.08325 | 22 ft | 15 kts | 274° |
| 2026-05-06 21:40 | 26.68108 | -80.08463 | 21 ft | 20 kts | 273° |
| 2026-05-06 21:40 | 26.68116 | -80.08620 | 22 ft | 19 kts | 273° |
| 2026-05-06 21:41 | 26.68121 | -80.08769 | 22 ft | 19 kts | 272° |
| 2026-05-06 21:41 | 26.68128 | -80.08917 | 21 ft | 19 kts | 272° |
| 2026-05-06 21:41 | 26.68134 | -80.09090 | 21 ft | 26 kts | 272° |
| 2026-05-06 21:41 | 26.68141 | -80.09235 | 22 ft | 30 kts | 272° |
| 2026-05-06 21:42 | 26.68155 | -80.09583 | 21 ft | 33 kts | 272° |
| 2026-05-06 21:42 | 26.68166 | -80.09839 | 21 ft | 32 kts | 272° |
| 2026-05-06 21:42 | 26.68173 | -80.10004 | 21 ft | 31 kts | 273° |
| 2026-05-06 21:42 | 26.68188 | -80.10318 | 21 ft | 29 kts | 273° |
| 2026-05-06 21:43 | 26.68203 | -80.10476 | 21 ft | 11 kts | 320° |
| 2026-05-06 21:43 | 26.68280 | -80.10457 | 22 ft | 10 kts | 5° |
| 2026-05-06 21:43 | 26.68306 | -80.10433 | 22 ft | 8 kts | 94° |
| 2026-05-06 21:43 | 26.68286 | -80.10025 | 22 ft | 93 kts | 92° |
| 2026-05-06 21:44 | 26.68258 | -80.09399 | 24 ft | 145 kts | 92° |
| 2026-05-06 21:44 | 26.68151 | -80.07771 | 789 ft | 163 kts | 93° |
| 2026-05-06 21:44 | 26.68092 | -80.06426 | 1531 ft | 190 kts | 90° |
| 2026-05-06 21:44 | 26.68085 | -80.04862 | 2401 ft | 211 kts | 89° |
| 2026-05-06 21:45 | 26.68078 | -80.03098 | 3261 ft | 246 kts | 89° |
| 2026-05-06 21:45 | 26.68074 | -80.01101 | 4223 ft | 271 kts | 89° |
| 2026-05-06 21:45 | 26.68067 | -79.99039 | 5730 ft | 273 kts | 88° |
| 2026-05-06 21:45 | 26.68063 | -79.96931 | 7154 ft | 277 kts | 88° |
| 2026-05-06 21:46 | 26.68060 | -79.95508 | 8035 ft | 281 kts | 88° |
| 2026-05-06 21:46 | 26.68053 | -79.92585 | 9738 ft | 289 kts | 87° |
| 2026-05-06 21:46 | 26.68049 | -79.90305 | 10564 ft | 312 kts | 87° |
| 2026-05-06 21:46 | 26.68049 | -79.87649 | 10586 ft | 361 kts | 87° |
| 2026-05-06 21:47 | 26.68039 | -79.84724 | 11249 ft | 383 kts | 87° |
| 2026-05-06 21:47 | 26.68027 | -79.81788 | 12686 ft | 382 kts | 86° |
| 2026-05-06 21:47 | 26.68018 | -79.78771 | 13697 ft | 391 kts | 86° |
| 2026-05-06 21:47 | 26.68010 | -79.75675 | 14642 ft | 399 kts | 86° |
| 2026-05-06 21:48 | 26.68003 | -79.73569 | 15225 ft | 405 kts | 86° |
| 2026-05-06 21:48 | 26.67992 | -79.70454 | 16060 ft | 414 kts | 86° |
| 2026-05-06 21:48 | 26.67976 | -79.66076 | 17258 ft | 425 kts | 86° |
| 2026-05-06 21:48 | 26.67966 | -79.63859 | 17882 ft | 430 kts | 86° |
| 2026-05-06 21:49 | 26.67947 | -79.59312 | 19055 ft | 443 kts | 86° |
| 2026-05-06 21:49 | 26.67931 | -79.55789 | 20003 ft | 452 kts | 86° |
| 2026-05-06 21:49 | 26.67914 | -79.52277 | 20846 ft | 462 kts | 86° |
| 2026-05-06 21:49 | 26.67897 | -79.48642 | 20962 ft | 472 kts | 86° |
| 2026-05-06 21:50 | 26.67876 | -79.44962 | 20976 ft | 467 kts | 86° |
| 2026-05-06 21:50 | 26.67855 | -79.41377 | 20973 ft | 462 kts | 86° |
| 2026-05-06 21:50 | 26.67834 | -79.37772 | 20970 ft | 459 kts | 86° |
| 2026-05-06 21:50 | 26.67814 | -79.34209 | 20976 ft | 460 kts | 86° |
| 2026-05-06 21:51 | 26.67794 | -79.31164 | 20972 ft | 460 kts | 86° |
| 2026-05-06 21:51 | 26.67772 | -79.27724 | 20972 ft | 460 kts | 86° |
| 2026-05-06 21:51 | 26.67753 | -79.24936 | 20976 ft | 460 kts | 86° |
| 2026-05-06 21:51 | 26.67729 | -79.21365 | 20975 ft | 460 kts | 86° |
| 2026-05-06 21:52 | 26.67694 | -79.16608 | 20974 ft | 460 kts | 86° |
| 2026-05-06 21:52 | 26.67649 | -79.14208 | 20967 ft | 461 kts | 89° |
| 2026-05-06 21:52 | 26.67246 | -79.09377 | 20977 ft | 463 kts | 92° |
| 2026-05-06 21:52 | 26.66950 | -79.05810 | 20975 ft | 463 kts | 91° |
| 2026-05-06 21:53 | 26.66662 | -79.02230 | 20974 ft | 462 kts | 91° |
| 2026-05-06 21:53 | 26.66466 | -78.99804 | 20976 ft | 462 kts | 91° |
| 2026-05-06 21:53 | 26.66085 | -78.95058 | 20968 ft | 462 kts | 91° |
| 2026-05-06 21:53 | 26.65794 | -78.91451 | 20977 ft | 461 kts | 91° |
| 2026-05-06 21:54 | 26.65504 | -78.87867 | 20978 ft | 461 kts | 91° |
| 2026-05-06 21:54 | 26.65213 | -78.84280 | 20975 ft | 461 kts | 91° |
| 2026-05-06 21:54 | 26.65021 | -78.81921 | 20979 ft | 460 kts | 91° |
| 2026-05-06 21:54 | 26.64631 | -78.77140 | 20982 ft | 460 kts | 91° |
| 2026-05-06 21:55 | 26.64437 | -78.74770 | 20978 ft | 461 kts | 91° |
| 2026-05-06 21:55 | 26.64147 | -78.71230 | 20982 ft | 461 kts | 91° |
| 2026-05-06 21:55 | 26.63853 | -78.67667 | 20984 ft | 460 kts | 91° |
| 2026-05-06 21:55 | 26.63461 | -78.62916 | 20983 ft | 461 kts | 91° |
| 2026-05-06 21:56 | 26.63260 | -78.60499 | 20954 ft | 460 kts | 91° |
| 2026-05-06 21:56 | 26.62864 | -78.55743 | 20916 ft | 460 kts | 91° |
| 2026-05-06 21:56 | 26.62666 | -78.53365 | 20889 ft | 459 kts | 91° |
| 2026-05-06 21:56 | 26.62268 | -78.48608 | 20849 ft | 459 kts | 91° |
| 2026-05-06 21:57 | 26.61970 | -78.45064 | 20812 ft | 459 kts | 91° |
| 2026-05-06 21:57 | 26.61770 | -78.42677 | 20793 ft | 458 kts | 91° |
| 2026-05-06 21:57 | 26.61370 | -78.37930 | 20602 ft | 460 kts | 91° |
| 2026-05-06 21:57 | 26.61170 | -78.35572 | 20301 ft | 459 kts | 91° |
| 2026-05-06 21:58 | 26.60771 | -78.30891 | 19586 ft | 451 kts | 91° |
| 2026-05-06 21:58 | 26.60477 | -78.27434 | 19041 ft | 445 kts | 92° |
| 2026-05-06 21:58 | 26.60183 | -78.23994 | 18493 ft | 441 kts | 91° |
| 2026-05-06 21:58 | 26.59889 | -78.20569 | 17943 ft | 436 kts | 91° |
| 2026-05-06 21:59 | 26.59700 | -78.18364 | 17590 ft | 434 kts | 91° |
| 2026-05-06 21:59 | 26.59318 | -78.13930 | 16890 ft | 427 kts | 91° |
| 2026-05-06 21:59 | 26.59126 | -78.11700 | 16533 ft | 423 kts | 91° |
| 2026-05-06 21:59 | 26.58751 | -78.07378 | 15841 ft | 416 kts | 91° |
| 2026-05-06 22:00 | 26.58477 | -78.04228 | 15335 ft | 411 kts | 91° |
| 2026-05-06 22:00 | 26.58205 | -78.01091 | 14830 ft | 405 kts | 92° |
| 2026-05-06 22:00 | 26.57932 | -77.97969 | 14330 ft | 401 kts | 91° |
| 2026-05-06 22:00 | 26.57664 | -77.94913 | 13840 ft | 396 kts | 92° |
| 2026-05-06 22:01 | 26.57397 | -77.91864 | 13349 ft | 391 kts | 92° |
| 2026-05-06 22:01 | 26.57132 | -77.88844 | 12860 ft | 389 kts | 92° |
| 2026-05-06 22:01 | 26.56869 | -77.85857 | 12384 ft | 386 kts | 92° |
| 2026-05-06 22:01 | 26.56610 | -77.82925 | 11913 ft | 384 kts | 92° |
| 2026-05-06 22:02 | 26.56348 | -77.79972 | 11437 ft | 382 kts | 92° |
| 2026-05-06 22:02 | 26.56173 | -77.77997 | 11121 ft | 380 kts | 92° |
| 2026-05-06 22:02 | 26.55830 | -77.74152 | 10497 ft | 366 kts | 93° |
| 2026-05-06 22:02 | 26.55583 | -77.71390 | 10049 ft | 352 kts | 93° |
| 2026-05-06 22:03 | 26.55344 | -77.68718 | 9620 ft | 340 kts | 93° |
| 2026-05-06 22:03 | 26.55112 | -77.66132 | 9207 ft | 329 kts | 93° |
| 2026-05-06 22:03 | 26.54886 | -77.63607 | 8804 ft | 319 kts | 94° |
| 2026-05-06 22:03 | 26.54666 | -77.61168 | 8414 ft | 311 kts | 94° |
| 2026-05-06 22:04 | 26.54456 | -77.58832 | 8040 ft | 304 kts | 94° |
| 2026-05-06 22:04 | 26.54245 | -77.56490 | 7665 ft | 297 kts | 94° |
| 2026-05-06 22:04 | 26.54110 | -77.54997 | 7425 ft | 293 kts | 94° |
| 2026-05-06 22:04 | 26.53838 | -77.51993 | 6945 ft | 285 kts | 94° |
| 2026-05-06 22:05 | 26.53640 | -77.49808 | 6594 ft | 281 kts | 95° |
| 2026-05-06 22:05 | 26.53443 | -77.47643 | 6248 ft | 278 kts | 95° |
| 2026-05-06 22:05 | 26.53313 | -77.46217 | 6021 ft | 278 kts | 95° |
| 2026-05-06 22:05 | 26.53120 | -77.44104 | 5683 ft | 276 kts | 95° |
| 2026-05-06 22:06 | 26.52863 | -77.41289 | 5232 ft | 273 kts | 95° |
| 2026-05-06 22:06 | 26.52733 | -77.39865 | 5002 ft | 272 kts | 95° |
| 2026-05-06 22:06 | 26.52478 | -77.37091 | 4558 ft | 270 kts | 95° |
| 2026-05-06 22:06 | 26.52288 | -77.35015 | 4225 ft | 267 kts | 95° |
| 2026-05-06 22:07 | 26.52100 | -77.32976 | 3896 ft | 263 kts | 95° |
| 2026-05-06 22:07 | 26.51975 | -77.31611 | 3675 ft | 260 kts | 96° |
| 2026-05-06 22:07 | 26.51792 | -77.29628 | 3357 ft | 257 kts | 96° |
| 2026-05-06 22:07 | 26.51548 | -77.26993 | 2936 ft | 252 kts | 96° |
| 2026-05-06 22:08 | 26.51374 | -77.25112 | 2632 ft | 226 kts | 96° |
| 2026-05-06 22:08 | 26.51230 | -77.23556 | 2379 ft | 187 kts | 96° |
| 2026-05-06 22:08 | 26.51100 | -77.22154 | 2150 ft | 179 kts | 96° |
| 2026-05-06 22:08 | 26.50971 | -77.20770 | 1943 ft | 179 kts | 96° |
| 2026-05-06 22:09 | 26.50853 | -77.19506 | 1757 ft | 147 kts | 96° |
| 2026-05-06 22:09 | 26.50785 | -77.18784 | 1598 ft | 130 kts | 95° |
| 2026-05-06 22:09 | 26.50772 | -77.17818 | 1465 ft | 124 kts | 88° |
| 2026-05-06 22:09 | 26.50797 | -77.16843 | 1228 ft | 125 kts | 88° |
| 2026-05-06 22:10 | 26.50831 | -77.15559 | 1008 ft | 125 kts | 88° |
| 2026-05-06 22:10 | 26.50857 | -77.14598 | 853 ft | 124 kts | 88° |
| 2026-05-06 22:10 | 26.50882 | -77.13620 | 693 ft | 124 kts | 88° |
| 2026-05-06 22:10 | 26.50906 | -77.12660 | 530 ft | 123 kts | 89° |
| 2026-05-06 22:11 | 26.50923 | -77.11713 | 391 ft | 121 kts | 89° |
| 2026-05-06 22:11 | 26.50948 | -77.10770 | 235 ft | 123 kts | 88° |
| 2026-05-06 22:11 | 26.50978 | -77.09822 | 85 ft | 121 kts | 88° |
| 2026-05-06 22:11 | 26.51004 | -77.08908 | 14 ft | 106 kts | 89° |
| 2026-05-06 22:12 | 26.51019 | -77.08283 | 19 ft | 41 kts | 89° |
| 2026-05-06 22:12 | 26.51049 | -77.08124 | 20 ft | 25 kts | 65° |
| 2026-05-06 22:12 | 26.51126 | -77.07972 | 19 ft | 10 kts | 56° |
| 2026-05-06 22:12 | 26.51144 | -77.07960 | 19 ft | 4 kts | 349° |
| 2026-05-06 22:13 | 26.51152 | -77.08025 | 19 ft | 7 kts | 267° |
| 2026-05-06 22:13 | 26.51148 | -77.08104 | 19 ft | 14 kts | 267° |
| 2026-05-06 22:13 | 26.51143 | -77.08220 | 19 ft | 15 kts | 268° |
| 2026-05-06 22:13 | 26.51143 | -77.08298 | 18 ft | 15 kts | 270° |
| 2026-05-06 22:14 | 26.51164 | -77.08418 | 17 ft | 10 kts | 346° |
| 2026-05-06 22:14 | 26.51214 | -77.08423 | 17 ft | 11 kts | 357° |
| 2026-05-06 22:14 | 26.51286 | -77.08493 | 15 ft | 12 kts | 279° |
| 2026-05-06 22:14 | 26.51284 | -77.08590 | 15 ft | 12 kts | 268° |
| 2026-05-06 22:15 | 26.51304 | -77.08677 | 16 ft | 11 kts | 324° |
| 2026-05-06 22:15 | 26.51323 | -77.08725 | 15 ft | 4 kts | 191° |
| 2026-05-06 22:15 | 26.51313 | -77.08714 | 15 ft | 1 kts | 98° |
| 2026-05-06 22:15 | 26.51313 | -77.08710 | 15 ft | 0 kts | 89° |